武漢 の空港の天気 - METARとTAF

武漢天河国際空港 ( ZHHH / WUH ) - 中国 湖北省武漢市
飛行場実況気象(Metar)
観測時間07/19 11:00 CST (07/19 03:00 UTC)
風向・風速北北東 4m/s
視程10km以上
天気現象
全天の4割程度の雲 雲底高度 910m
気温31℃
湿度66%
気圧1002hPa
METARZHHH 190300Z 02004MPS 340V060 9999 SCT030 31/24 Q1002 NOSIG
過去の天気等 Google飛行場航空写真 Wunderground天気予報

過去48時間のMETAR

飛行場予報(TAF)
発表時間: 7/19 03:15 CST (7/18 19:15 UTC)
予報対象時間: 19日8時 CST ~ 20日8時 CST
風向・風速北北東 3m/s
視程6000m
なし
19日14時 CST ~ 19日18時 CST に一時的に
視程3000m
天気現象しゅう雨 もや
少しの積乱雲 雲底高度 910m
TAF ZHHH 181915Z 1900/1924 02003MPS 6000 NSC TX33/1906Z TN25/1921Z
TEMPO 1906/1910 3000 SHRA BR FEW030CB